createdAt,value
2017-10-22T00:01:08.504Z,93.08
2017-10-22T00:03:36.497Z,92.86
2017-10-22T00:06:04.447Z,92.72
2017-10-22T00:11:05.833Z,92.76
2017-10-22T00:13:33.603Z,92.56
2017-10-22T00:16:01.542Z,92.63
2017-10-22T00:18:29.230Z,92.76
2017-10-22T00:20:57.539Z,92.93
2017-10-22T00:23:25.408Z,92.96
2017-10-22T00:25:53.006Z,93.26
2017-10-22T00:28:20.796Z,93.14
2017-10-22T00:30:48.753Z,93.35
2017-10-22T00:33:16.330Z,93.28
2017-10-22T00:35:44.295Z,93.62
2017-10-22T00:38:11.886Z,94.03
2017-10-22T00:40:39.512Z,94.14
2017-10-22T00:43:07.209Z,94.35
2017-10-22T00:45:35.411Z,94.09
2017-10-22T00:48:02.976Z,93.98
2017-10-22T00:50:30.972Z,93.96
2017-10-22T00:52:58.544Z,93.91
2017-10-22T00:55:26.548Z,93.98
2017-10-22T00:57:54.467Z,94.24
2017-10-22T01:00:22.037Z,94.38
2017-10-22T01:02:50.017Z,93.93
2017-10-22T01:05:17.966Z,93.49
2017-10-22T01:07:45.523Z,93.64
2017-10-22T01:10:13.103Z,93.98
2017-10-22T01:12:41.069Z,93.90
2017-10-22T01:15:08.666Z,93.30
2017-10-22T01:17:36.235Z,93.32
2017-10-22T01:20:05.221Z,93.46
2017-10-22T01:22:33.155Z,93.45
2017-10-22T01:25:00.744Z,92.85
2017-10-22T01:27:28.791Z,93.01
2017-10-22T01:29:56.364Z,93.21
2017-10-22T01:32:24.125Z,93.11
2017-10-22T01:34:53.060Z,92.96
2017-10-22T01:37:20.630Z,92.99
2017-10-22T01:39:48.597Z,93.33
2017-10-22T01:42:16.225Z,92.94
2017-10-22T01:44:43.800Z,93.21
2017-10-22T01:47:12.047Z,93.25
2017-10-22T01:49:39.642Z,92.97
2017-10-22T01:52:07.201Z,92.02
2017-10-22T01:54:34.776Z,92.29
2017-10-22T01:57:02.869Z,92.01
2017-10-22T01:59:30.454Z,91.95
2017-10-22T02:01:58.546Z,91.89
2017-10-22T02:04:26.498Z,91.70
2017-10-22T02:06:54.669Z,91.36
2017-10-22T02:09:22.234Z,91.55
2017-10-22T02:11:50.327Z,91.33
2017-10-22T02:14:18.359Z,91.14
2017-10-22T02:16:45.932Z,91.52
2017-10-22T02:19:13.503Z,91.22
2017-10-22T02:21:41.113Z,91.28
2017-10-22T02:24:08.675Z,91.07
2017-10-22T02:26:37.073Z,90.94
2017-10-22T02:29:04.888Z,90.95
2017-10-22T02:31:32.858Z,90.98
2017-10-22T02:34:02.251Z,91.00
2017-10-22T02:36:29.809Z,90.87
2017-10-22T02:38:57.366Z,90.87
2017-10-22T02:41:24.968Z,90.58
2017-10-22T02:43:53.491Z,90.92
2017-10-22T02:46:21.067Z,91.29
2017-10-22T02:48:48.648Z,91.45
2017-10-22T02:51:16.255Z,91.63
2017-10-22T02:53:43.828Z,91.90
2017-10-22T02:56:11.598Z,91.69
2017-10-22T02:58:39.549Z,91.58
2017-10-22T03:01:07.147Z,91.91
2017-10-22T03:03:34.723Z,91.90
2017-10-22T03:06:03.060Z,91.81
2017-10-22T03:08:30.737Z,91.41
2017-10-22T03:10:58.305Z,91.06
2017-10-22T03:13:25.974Z,90.93
2017-10-22T03:15:54.291Z,91.10
2017-10-22T03:18:21.905Z,91.28
2017-10-22T03:20:49.889Z,91.35
2017-10-22T03:23:17.528Z,91.56
2017-10-22T03:25:45.481Z,91.63
2017-10-22T03:28:14.007Z,91.54
2017-10-22T03:30:41.592Z,91.89
2017-10-22T03:33:09.163Z,92.17
2017-10-22T03:35:36.787Z,91.96
2017-10-22T03:38:04.356Z,92.42
2017-10-22T03:40:32.989Z,92.66
2017-10-22T03:43:00.543Z,92.99
2017-10-22T03:45:28.143Z,92.97
2017-10-22T03:47:55.722Z,92.74
2017-10-22T03:50:23.330Z,93.10
2017-10-22T03:52:50.892Z,93.15
2017-10-22T03:55:18.471Z,93.53
2017-10-22T03:57:46.083Z,93.58
2017-10-22T04:00:14.065Z,94.06
2017-10-22T04:02:42.091Z,93.89
2017-10-22T04:05:09.697Z,94.39
2017-10-22T04:07:37.330Z,94.62
2017-10-22T04:10:04.878Z,94.93
2017-10-22T04:12:32.453Z,95.12
2017-10-22T04:15:00.025Z,95.25
2017-10-22T04:17:27.648Z,95.37
2017-10-22T04:19:55.194Z,95.47
2017-10-22T04:22:22.901Z,95.59
2017-10-22T04:24:50.641Z,95.56
2017-10-22T04:27:18.194Z,95.50
2017-10-22T04:29:46.603Z,95.23
2017-10-22T04:32:14.220Z,95.43
2017-10-22T04:34:41.803Z,95.47
2017-10-22T04:37:09.444Z,95.61
2017-10-22T04:39:37.067Z,95.53
2017-10-22T04:42:05.259Z,95.67
2017-10-22T04:44:32.831Z,95.67
2017-10-22T04:47:00.542Z,95.38
2017-10-22T04:49:28.120Z,95.33
2017-10-22T04:51:55.936Z,95.15
2017-10-22T04:54:23.477Z,95.22
2017-10-22T04:56:51.119Z,95.20
2017-10-22T04:59:18.692Z,95.00
2017-10-22T05:01:46.565Z,94.75
2017-10-22T05:04:14.177Z,94.86
2017-10-22T05:06:41.728Z,94.93
2017-10-22T05:09:09.309Z,94.92
2017-10-22T05:11:36.879Z,94.80
2017-10-22T05:14:04.827Z,94.97
2017-10-22T05:16:32.394Z,94.77
2017-10-22T05:19:00.018Z,94.91
2017-10-22T05:21:27.584Z,94.52
2017-10-22T05:23:55.358Z,94.83
2017-10-22T05:26:22.918Z,94.94
2017-10-22T05:28:50.477Z,94.95
2017-10-22T05:31:19.022Z,95.01
2017-10-22T05:33:46.971Z,95.11
2017-10-22T05:36:14.562Z,95.16
2017-10-22T05:38:42.191Z,95.26
2017-10-22T05:41:09.950Z,95.13
2017-10-22T05:43:37.658Z,94.88
2017-10-22T05:46:05.250Z,95.04
2017-10-22T05:48:32.879Z,94.96
2017-10-22T05:51:00.442Z,94.65
2017-10-22T05:53:28.027Z,94.31
2017-10-22T05:55:56.602Z,94.46
2017-10-22T05:58:24.192Z,94.28
2017-10-22T06:00:51.764Z,94.43
2017-10-22T06:03:19.452Z,94.34
2017-10-22T06:05:47.025Z,94.33
2017-10-22T06:08:14.572Z,94.35
2017-10-22T06:10:42.156Z,94.51
2017-10-22T06:13:10.115Z,94.04
2017-10-22T06:15:37.835Z,94.43
2017-10-22T06:18:05.959Z,94.58
2017-10-22T06:20:33.590Z,94.48
2017-10-22T06:23:01.145Z,94.53
2017-10-22T06:25:29.152Z,94.38
2017-10-22T06:27:56.792Z,94.42
2017-10-22T06:30:24.357Z,94.28
2017-10-22T06:32:52.094Z,94.20
2017-10-22T06:35:19.666Z,94.37
2017-10-22T06:37:47.219Z,94.16
2017-10-22T06:40:14.806Z,94.30
2017-10-22T06:42:42.401Z,94.01
2017-10-22T06:45:10.166Z,94.15
2017-10-22T06:47:38.420Z,93.82
2017-10-22T06:50:06.031Z,93.88
2017-10-22T06:52:34.751Z,93.85
2017-10-22T06:55:02.351Z,93.58
2017-10-22T06:57:29.932Z,93.73
2017-10-22T06:59:57.534Z,93.98
2017-10-22T07:02:25.329Z,93.85
2017-10-22T07:04:52.888Z,93.87
2017-10-22T07:07:20.689Z,94.04
2017-10-22T07:09:48.285Z,93.97
2017-10-22T07:12:15.959Z,94.06
2017-10-22T07:14:43.536Z,93.48
2017-10-22T07:17:11.109Z,93.93
2017-10-22T07:19:38.729Z,93.84
2017-10-22T07:22:06.289Z,93.73
2017-10-22T07:24:34.277Z,93.60
2017-10-22T07:27:01.843Z,93.66
2017-10-22T07:29:29.415Z,93.65
2017-10-22T07:31:57.045Z,93.64
2017-10-22T07:34:24.640Z,93.24
2017-10-22T07:36:52.233Z,92.76
2017-10-22T07:39:19.803Z,92.92
2017-10-22T07:41:47.373Z,92.75
2017-10-22T07:44:14.995Z,92.72
2017-10-22T07:46:42.595Z,92.34
2017-10-22T07:49:10.277Z,92.08
2017-10-22T07:51:37.871Z,91.80
2017-10-22T07:54:05.477Z,90.96
2017-10-22T07:56:33.068Z,91.27
2017-10-22T07:59:00.669Z,91.01
2017-10-22T08:01:28.285Z,90.55
2017-10-22T08:03:55.872Z,90.44
2017-10-22T08:06:23.473Z,91.09
2017-10-22T08:08:51.387Z,91.37
2017-10-22T08:11:18.947Z,90.36
2017-10-22T08:13:46.506Z,90.05
2017-10-22T08:16:14.088Z,90.01
2017-10-22T08:18:41.660Z,90.10
2017-10-22T08:21:09.249Z,88.52
2017-10-22T08:23:36.813Z,88.52
2017-10-22T08:26:04.478Z,87.53
2017-10-22T08:28:32.073Z,87.04
2017-10-22T08:30:59.704Z,86.55
2017-10-22T08:33:27.336Z,86.66
2017-10-22T08:35:54.916Z,87.76
2017-10-22T08:38:22.509Z,88.10
2017-10-22T08:40:50.083Z,86.74
2017-10-22T08:43:17.682Z,86.17
2017-10-22T08:45:45.272Z,85.81
2017-10-22T08:48:12.861Z,85.03
2017-10-22T08:50:40.449Z,83.78
2017-10-22T08:53:08.057Z,84.58
2017-10-22T08:55:35.666Z,84.34
2017-10-22T08:58:03.633Z,83.94
2017-10-22T09:00:31.261Z,84.08
2017-10-22T09:02:58.851Z,82.99
2017-10-22T09:05:26.686Z,83.63
2017-10-22T09:07:54.267Z,83.32
2017-10-22T09:10:22.008Z,82.87
2017-10-22T09:12:49.594Z,81.99
2017-10-22T09:15:17.209Z,80.87
2017-10-22T09:17:44.849Z,80.64
2017-10-22T09:20:12.432Z,80.63
2017-10-22T09:22:40.045Z,79.68
2017-10-22T09:25:07.645Z,80.76
2017-10-22T09:27:35.263Z,80.39
2017-10-22T09:30:02.838Z,80.52
2017-10-22T09:32:30.580Z,79.73
2017-10-22T09:34:58.188Z,79.68
2017-10-22T09:37:25.781Z,79.25
2017-10-22T09:39:53.481Z,80.05
2017-10-22T09:42:21.800Z,79.75
2017-10-22T09:44:49.824Z,79.80
2017-10-22T09:47:17.413Z,79.70
2017-10-22T09:49:45.020Z,79.34
2017-10-22T09:52:12.650Z,77.70
2017-10-22T09:54:40.260Z,77.76
2017-10-22T09:57:08.049Z,76.68
2017-10-22T09:59:35.608Z,76.93
2017-10-22T10:02:03.203Z,77.24
2017-10-22T10:04:30.803Z,77.23
2017-10-22T10:06:58.431Z,75.36
2017-10-22T10:09:26.036Z,75.96
2017-10-22T10:11:54.049Z,73.88
2017-10-22T10:14:21.627Z,73.16
2017-10-22T10:16:49.618Z,73.47
2017-10-22T10:19:17.221Z,74.58
2017-10-22T10:21:45.262Z,73.82
2017-10-22T10:24:12.892Z,73.50
2017-10-22T10:26:40.488Z,73.21
2017-10-22T10:29:08.097Z,74.01
2017-10-22T10:31:35.686Z,73.37
2017-10-22T10:34:03.715Z,72.88
2017-10-22T10:36:31.292Z,72.67
2017-10-22T10:38:59.536Z,72.34
2017-10-22T10:41:27.151Z,72.60
2017-10-22T10:43:54.776Z,71.37
2017-10-22T10:46:22.789Z,71.94
2017-10-22T10:48:51.087Z,71.84
2017-10-22T10:51:18.805Z,72.49
2017-10-22T10:53:46.407Z,70.53
2017-10-22T10:56:14.049Z,71.42
2017-10-22T10:58:41.664Z,69.88
2017-10-22T11:01:09.284Z,69.46
2017-10-22T11:03:36.934Z,69.06
2017-10-22T11:06:04.950Z,67.64
2017-10-22T11:08:32.562Z,69.41
2017-10-22T11:11:00.576Z,70.44
2017-10-22T11:13:28.516Z,66.02
2017-10-22T11:15:56.255Z,66.88
2017-10-22T11:18:23.880Z,65.77
2017-10-22T11:20:51.941Z,65.99
2017-10-22T11:23:19.559Z,65.65
2017-10-22T11:25:47.176Z,65.29
2017-10-22T11:28:14.793Z,66.14
2017-10-22T11:30:42.884Z,64.99
2017-10-22T11:33:10.553Z,63.27
2017-10-22T11:35:38.218Z,65.26
2017-10-22T11:38:06.261Z,64.36
2017-10-22T11:40:34.473Z,64.59
2017-10-22T11:43:02.076Z,66.52
2017-10-22T11:45:29.726Z,65.15
2017-10-22T11:47:57.385Z,65.84
2017-10-22T11:50:25.016Z,65.70
2017-10-22T11:52:52.623Z,65.06
2017-10-22T11:55:21.703Z,63.58
2017-10-22T11:57:49.442Z,63.64
2017-10-22T12:00:17.252Z,63.85
2017-10-22T12:02:45.428Z,63.09
2017-10-22T12:05:13.160Z,64.54
2017-10-22T12:07:40.822Z,64.32
2017-10-22T12:10:08.401Z,63.61
2017-10-22T12:12:36.051Z,62.54
2017-10-22T12:15:03.638Z,60.93
2017-10-22T12:17:31.271Z,62.93
2017-10-22T12:19:58.888Z,60.55
2017-10-22T12:22:26.487Z,61.90
2017-10-22T12:24:54.078Z,60.59
2017-10-22T12:27:21.686Z,59.00
2017-10-22T12:29:49.695Z,60.57
2017-10-22T12:32:17.431Z,61.89
2017-10-22T12:34:45.415Z,58.50
2017-10-22T12:37:13.353Z,57.42
2017-10-22T12:39:40.932Z,58.57
2017-10-22T12:42:08.600Z,57.96
2017-10-22T12:44:36.273Z,57.61
2017-10-22T12:47:03.872Z,55.83
2017-10-22T12:49:31.458Z,57.05
2017-10-22T12:51:59.123Z,57.27
2017-10-22T12:54:26.734Z,57.23
2017-10-22T12:56:54.346Z,57.63
2017-10-22T12:59:22.210Z,59.37
2017-10-22T13:01:49.906Z,57.91
2017-10-22T13:04:17.575Z,57.92
2017-10-22T13:06:45.214Z,58.34
2017-10-22T13:09:12.856Z,57.64
2017-10-22T13:11:40.524Z,58.04
2017-10-22T13:14:08.149Z,59.72
2017-10-22T13:16:35.763Z,60.17
2017-10-22T13:19:03.395Z,59.68
2017-10-22T13:21:30.996Z,58.52
2017-10-22T13:23:58.672Z,59.85
2017-10-22T13:26:26.315Z,59.81
2017-10-22T13:28:53.948Z,60.96
2017-10-22T13:31:21.579Z,59.68
2017-10-22T13:33:49.204Z,60.42
2017-10-22T13:36:16.847Z,59.66
2017-10-22T13:38:44.512Z,60.16
2017-10-22T13:41:12.212Z,60.74
2017-10-22T13:43:39.849Z,60.26
2017-10-22T13:46:07.437Z,60.11
2017-10-22T13:48:36.323Z,60.61
2017-10-22T13:51:03.901Z,60.71
2017-10-22T13:53:31.502Z,61.07
2017-10-22T13:55:59.150Z,61.34
2017-10-22T13:58:26.813Z,62.05
2017-10-22T14:00:54.471Z,62.66
2017-10-22T14:03:22.506Z,62.30
2017-10-22T14:05:50.309Z,63.04
2017-10-22T14:08:17.996Z,63.93
2017-10-22T14:10:45.795Z,63.63
2017-10-22T14:13:13.715Z,63.75
2017-10-22T14:15:41.410Z,64.30
2017-10-22T14:18:09.649Z,64.16
2017-10-22T14:20:37.511Z,63.96
2017-10-22T14:23:05.563Z,63.47
2017-10-22T14:25:33.271Z,63.68
2017-10-22T14:28:00.994Z,63.29
2017-10-22T14:30:28.806Z,64.11
2017-10-22T14:32:56.639Z,64.58
2017-10-22T14:35:24.512Z,64.21
2017-10-22T14:37:52.542Z,63.82
2017-10-22T14:40:20.264Z,63.74
2017-10-22T14:42:47.955Z,64.56
2017-10-22T14:45:16.399Z,64.81
2017-10-22T14:47:44.110Z,65.44
2017-10-22T14:50:11.831Z,65.07
2017-10-22T14:52:39.769Z,64.98
2017-10-22T14:55:07.473Z,65.04
2017-10-22T14:57:35.225Z,65.18
2017-10-22T15:00:02.920Z,65.40
2017-10-22T15:02:30.740Z,65.50
2017-10-22T15:04:58.550Z,65.64
2017-10-22T15:07:26.240Z,65.72
2017-10-22T15:09:54.655Z,66.47
2017-10-22T15:12:22.383Z,66.37
2017-10-22T15:14:50.088Z,66.51
2017-10-22T15:17:17.918Z,66.59
2017-10-22T15:19:45.930Z,66.84
2017-10-22T15:22:13.919Z,66.99
2017-10-22T15:24:42.445Z,66.57
2017-10-22T15:27:11.131Z,66.67
2017-10-22T15:29:38.911Z,67.08
2017-10-22T15:32:06.806Z,66.11
2017-10-22T15:34:34.659Z,66.88
2017-10-22T15:37:02.491Z,66.60
2017-10-22T15:39:30.772Z,66.77
2017-10-22T15:41:58.963Z,67.08
2017-10-22T15:44:27.036Z,67.91
2017-10-22T15:46:54.827Z,67.73
2017-10-22T15:49:22.678Z,67.96
2017-10-22T15:51:50.950Z,68.87
2017-10-22T15:54:18.818Z,69.07
2017-10-22T15:56:46.869Z,69.53
2017-10-22T15:59:14.657Z,69.86
2017-10-22T16:01:42.508Z,70.24
2017-10-22T16:04:11.925Z,70.67
2017-10-22T16:06:39.659Z,71.51
2017-10-22T16:09:07.889Z,71.80
2017-10-22T16:11:35.582Z,72.25
2017-10-22T16:14:03.717Z,72.25
2017-10-22T16:16:31.715Z,71.99
2017-10-22T16:18:59.628Z,71.88
2017-10-22T16:21:27.736Z,71.91
2017-10-22T16:23:55.481Z,71.50
2017-10-22T16:26:24.177Z,70.55
2017-10-22T16:28:52.028Z,70.38
2017-10-22T16:31:19.823Z,70.07
2017-10-22T16:33:48.226Z,69.91
2017-10-22T16:36:16.058Z,70.81
2017-10-22T16:38:44.165Z,70.77
2017-10-22T16:41:12.101Z,70.83
2017-10-22T16:43:40.173Z,71.16
2017-10-22T16:46:08.117Z,71.37
2017-10-22T16:48:36.048Z,71.48
2017-10-22T16:51:03.945Z,71.57
2017-10-22T16:53:31.845Z,71.59
2017-10-22T16:55:59.653Z,72.32
2017-10-22T16:58:27.961Z,73.12
2017-10-22T17:00:56.827Z,72.57
2017-10-22T17:13:10.077Z,72.96
2017-10-22T17:15:38.001Z,73.48
2017-10-22T17:18:06.014Z,73.75
2017-10-22T17:20:33.872Z,73.58
2017-10-22T17:23:02.773Z,73.84
2017-10-22T17:25:30.744Z,75.56
2017-10-22T17:27:58.710Z,77.07
2017-10-22T17:30:26.641Z,77.92
2017-10-22T17:32:54.644Z,79.23
2017-10-22T17:35:22.720Z,79.69
2017-10-22T17:37:50.569Z,80.03
2017-10-22T17:40:18.491Z,80.37
2017-10-22T17:42:46.428Z,80.50
2017-10-22T17:45:14.346Z,80.79
2017-10-22T17:47:42.091Z,80.73
2017-10-22T17:50:10.032Z,80.81
2017-10-22T17:52:37.970Z,80.51
2017-10-22T17:55:06.075Z,80.62
2017-10-22T17:57:34.037Z,80.78
2017-10-22T18:00:02.818Z,80.89
2017-10-22T18:02:35.151Z,80.92
2017-10-22T18:05:03.152Z,81.07
2017-10-22T18:07:32.593Z,80.81
2017-10-22T18:10:02.640Z,80.83
2017-10-22T18:12:31.579Z,80.98
2017-10-22T18:15:00.267Z,81.01
2017-10-22T18:17:28.644Z,81.24
2017-10-22T18:19:56.619Z,80.99
2017-10-22T18:22:26.320Z,81.05
2017-10-22T18:24:54.304Z,81.27
2017-10-22T18:27:24.228Z,81.27
2017-10-22T18:29:52.254Z,81.30
2017-10-22T18:32:25.006Z,81.14
2017-10-22T18:34:52.822Z,81.52
2017-10-22T18:37:21.634Z,81.70
2017-10-22T18:39:49.655Z,81.34
2017-10-22T18:42:17.769Z,81.79
2017-10-22T18:44:45.722Z,82.24
2017-10-22T18:47:15.254Z,82.51
2017-10-22T18:49:43.309Z,83.23
2017-10-22T18:52:12.934Z,83.11
2017-10-22T18:54:40.996Z,83.46
2017-10-22T19:10:09.150Z,84.68
2017-10-22T19:12:37.355Z,84.99
2017-10-22T19:15:06.838Z,84.87
2017-10-22T19:17:35.330Z,84.84
2017-10-22T19:20:03.921Z,84.63
2017-10-22T19:22:32.586Z,85.09
2017-10-22T19:25:01.482Z,84.75
2017-10-22T19:27:29.993Z,84.50
2017-10-22T19:29:59.387Z,84.29
2017-10-22T19:32:28.916Z,84.30
2017-10-22T19:34:58.528Z,84.60
2017-10-22T19:37:26.871Z,84.78
2017-10-22T19:42:29.057Z,84.97
2017-10-22T19:44:57.908Z,85.13
2017-10-22T19:47:25.900Z,85.07
2017-10-22T19:49:56.304Z,85.48
2017-10-22T19:52:24.769Z,85.13
2017-10-22T19:54:53.291Z,85.38
2017-10-22T19:57:21.254Z,85.31
2017-10-22T19:59:49.278Z,85.19
2017-10-22T20:02:17.300Z,85.02
2017-10-22T20:04:45.275Z,84.76
2017-10-22T20:07:13.403Z,85.14
2017-10-22T20:09:41.413Z,85.83
2017-10-22T20:12:09.383Z,86.20
2017-10-22T20:14:38.734Z,86.90
2017-10-22T20:17:06.659Z,87.32
2017-10-22T20:19:34.630Z,88.27
2017-10-22T20:22:02.589Z,88.28
2017-10-22T20:24:30.861Z,88.45
2017-10-22T20:26:58.835Z,88.33
2017-10-22T20:29:27.123Z,88.21
2017-10-22T20:31:54.987Z,88.44
2017-10-22T20:34:23.253Z,88.14
2017-10-22T20:36:51.118Z,88.04
2017-10-22T20:39:18.954Z,87.93
2017-10-22T20:41:46.692Z,88.43
2017-10-22T20:44:14.452Z,88.26
2017-10-22T20:46:43.110Z,88.45
2017-10-22T20:49:12.409Z,88.26
2017-10-22T20:51:40.443Z,88.70
2017-10-22T20:54:08.159Z,88.20
2017-10-22T20:56:35.856Z,88.39
2017-10-22T20:59:03.597Z,88.79
2017-10-22T21:01:31.292Z,88.69
2017-10-22T21:03:59.917Z,89.06
2017-10-22T21:06:27.683Z,88.71
2017-10-22T21:08:55.462Z,88.92
2017-10-22T21:11:24.727Z,89.02
2017-10-22T21:13:52.373Z,88.85
2017-10-22T21:16:20.103Z,88.70
2017-10-22T21:18:47.680Z,88.72
2017-10-22T21:21:15.697Z,89.03
2017-10-22T21:23:43.256Z,88.94
2017-10-22T21:26:11.255Z,89.10
2017-10-22T21:28:38.851Z,89.06
2017-10-22T21:31:06.422Z,88.69
2017-10-22T21:33:34.411Z,88.61
2017-10-22T21:36:01.985Z,88.81
2017-10-22T21:38:29.587Z,88.81
2017-10-22T21:40:57.200Z,88.52
2017-10-22T21:43:25.067Z,88.53
2017-10-22T21:45:52.623Z,88.77
2017-10-22T21:48:20.575Z,88.75
2017-10-22T21:50:48.165Z,88.42
2017-10-22T21:53:15.749Z,88.52
2017-10-22T21:55:43.502Z,88.46
2017-10-22T21:58:11.064Z,88.66
2017-10-22T22:00:38.658Z,88.51
2017-10-22T22:03:06.373Z,88.94
2017-10-22T22:05:33.973Z,88.85
2017-10-22T22:08:01.519Z,88.99
2017-10-22T22:10:29.134Z,89.21
2017-10-22T22:12:57.295Z,89.24
2017-10-22T22:15:24.975Z,89.00
2017-10-22T22:17:52.580Z,89.00
2017-10-22T22:20:20.134Z,88.97
2017-10-22T22:22:47.763Z,89.33
2017-10-22T22:25:17.457Z,89.20
2017-10-22T22:27:45.034Z,89.15
2017-10-22T22:30:12.610Z,89.39
2017-10-22T22:32:40.484Z,89.06
2017-10-22T22:35:12.044Z,89.13
2017-10-22T22:37:40.497Z,89.09
2017-10-22T22:40:08.697Z,89.17
2017-10-22T22:42:36.291Z,88.87
2017-10-22T22:45:03.877Z,88.65
2017-10-22T22:47:31.464Z,88.83
2017-10-22T22:49:59.143Z,88.78
2017-10-22T22:52:28.092Z,88.95
2017-10-22T22:54:56.404Z,88.97
2017-10-22T22:57:23.957Z,88.60
2017-10-22T22:59:52.225Z,88.42
2017-10-22T23:02:20.015Z,88.15
2017-10-22T23:04:47.565Z,88.21
2017-10-22T23:07:15.128Z,88.48
2017-10-22T23:09:43.071Z,88.46
2017-10-22T23:12:10.670Z,88.48
2017-10-22T23:14:38.220Z,88.41
2017-10-22T23:17:05.797Z,88.35
2017-10-22T23:19:33.913Z,88.49
2017-10-22T23:22:01.489Z,88.48
2017-10-22T23:24:29.217Z,88.26
2017-10-22T23:26:56.899Z,88.57
2017-10-22T23:29:24.516Z,88.50
2017-10-22T23:31:52.084Z,88.66
2017-10-22T23:34:21.185Z,88.65
2017-10-22T23:36:48.771Z,88.67
2017-10-22T23:39:16.411Z,88.65
2017-10-22T23:41:43.996Z,88.71
2017-10-22T23:44:11.563Z,88.80
2017-10-22T23:46:39.132Z,88.86
2017-10-22T23:49:06.722Z,88.89
2017-10-22T23:51:34.335Z,88.85
2017-10-22T23:54:01.893Z,88.95
2017-10-22T23:56:29.639Z,89.27
2017-10-22T23:58:57.192Z,89.08
